sensor_id;sensor_type;location;lat;lon;timestamp;P1;durP1;ratioP1;P2;durP2;ratioP2
52210;SDS011;38179;52.756;6.906;2022-10-16T00:01:24;16.88;;;14.32;;
52210;SDS011;38179;52.756;6.906;2022-10-16T00:03:52;15.32;;;13.93;;
52210;SDS011;38179;52.756;6.906;2022-10-16T00:06:19;15.27;;;13.88;;
52210;SDS011;38179;52.756;6.906;2022-10-16T00:08:47;16.95;;;15.32;;
52210;SDS011;38179;52.756;6.906;2022-10-16T00:11:21;16.20;;;14.52;;
52210;SDS011;38179;52.756;6.906;2022-10-16T00:13:54;17.40;;;15.63;;
52210;SDS011;38179;52.756;6.906;2022-10-16T00:16:23;15.55;;;13.98;;
52210;SDS011;38179;52.756;6.906;2022-10-16T00:18:49;15.75;;;14.35;;
52210;SDS011;38179;52.756;6.906;2022-10-16T00:21:20;16.55;;;15.05;;
52210;SDS011;38179;52.756;6.906;2022-10-16T00:23:53;15.82;;;14.38;;
52210;SDS011;38179;52.756;6.906;2022-10-16T00:26:21;15.52;;;14.23;;
52210;SDS011;38179;52.756;6.906;2022-10-16T00:28:48;16.02;;;14.30;;
52210;SDS011;38179;52.756;6.906;2022-10-16T00:31:16;16.13;;;14.57;;
52210;SDS011;38179;52.756;6.906;2022-10-16T00:33:43;15.67;;;14.17;;
52210;SDS011;38179;52.756;6.906;2022-10-16T00:36:10;16.23;;;14.57;;
52210;SDS011;38179;52.756;6.906;2022-10-16T00:38:39;15.25;;;13.85;;
52210;SDS011;38179;52.756;6.906;2022-10-16T00:41:06;15.75;;;14.15;;
52210;SDS011;38179;52.756;6.906;2022-10-16T00:43:34;15.93;;;14.38;;
52210;SDS011;38179;52.756;6.906;2022-10-16T00:46:08;17.15;;;15.68;;
52210;SDS011;38179;52.756;6.906;2022-10-16T00:48:38;15.38;;;14.18;;
52210;SDS011;38179;52.756;6.906;2022-10-16T00:51:05;17.75;;;14.55;;
52210;SDS011;38179;52.756;6.906;2022-10-16T00:53:33;15.83;;;14.33;;
52210;SDS011;38179;52.756;6.906;2022-10-16T00:56:00;15.48;;;14.15;;
52210;SDS011;38179;52.756;6.906;2022-10-16T00:58:27;16.38;;;14.40;;
52210;SDS011;38179;52.756;6.906;2022-10-16T01:00:53;15.55;;;14.35;;
52210;SDS011;38179;52.756;6.906;2022-10-16T01:03:23;15.93;;;14.52;;
52210;SDS011;38179;52.756;6.906;2022-10-16T01:06:05;15.77;;;14.48;;
52210;SDS011;38179;52.756;6.906;2022-10-16T01:11:40;15.88;;;14.02;;
52210;SDS011;38179;52.756;6.906;2022-10-16T01:14:22;15.55;;;14.15;;
52210;SDS011;38179;52.756;6.906;2022-10-16T01:17:03;15.52;;;14.13;;
52210;SDS011;38179;52.756;6.906;2022-10-16T01:20:09;15.95;;;14.60;;
52210;SDS011;38179;52.756;6.906;2022-10-16T01:22:39;15.57;;;14.05;;
52210;SDS011;38179;52.756;6.906;2022-10-16T01:26:05;15.50;;;14.20;;
52210;SDS011;38179;52.756;6.906;2022-10-16T01:28:40;15.48;;;14.07;;
52210;SDS011;38179;52.756;6.906;2022-10-16T01:31:15;16.35;;;14.18;;
52210;SDS011;38179;52.756;6.906;2022-10-16T01:33:46;16.08;;;14.48;;
52210;SDS011;38179;52.756;6.906;2022-10-16T01:36:23;16.63;;;14.93;;
52210;SDS011;38179;52.756;6.906;2022-10-16T01:38:56;15.73;;;14.23;;
52210;SDS011;38179;52.756;6.906;2022-10-16T01:41:33;15.70;;;14.20;;
52210;SDS011;38179;52.756;6.906;2022-10-16T01:44:12;15.82;;;14.25;;
52210;SDS011;38179;52.756;6.906;2022-10-16T01:46:46;15.70;;;14.43;;
52210;SDS011;38179;52.756;6.906;2022-10-16T01:49:15;15.77;;;14.20;;
52210;SDS011;38179;52.756;6.906;2022-10-16T01:51:43;16.00;;;14.50;;
52210;SDS011;38179;52.756;6.906;2022-10-16T01:54:12;17.92;;;14.18;;
52210;SDS011;38179;52.756;6.906;2022-10-16T01:56:41;15.73;;;14.15;;
52210;SDS011;38179;52.756;6.906;2022-10-16T01:59:12;15.55;;;13.95;;
52210;SDS011;38179;52.756;6.906;2022-10-16T02:01:43;16.27;;;14.70;;
52210;SDS011;38179;52.756;6.906;2022-10-16T02:04:18;16.13;;;14.60;;
52210;SDS011;38179;52.756;6.906;2022-10-16T02:06:50;16.30;;;14.80;;
52210;SDS011;38179;52.756;6.906;2022-10-16T02:09:17;16.00;;;14.50;;
52210;SDS011;38179;52.756;6.906;2022-10-16T02:11:43;15.18;;;13.82;;
52210;SDS011;38179;52.756;6.906;2022-10-16T02:14:10;15.57;;;14.30;;
52210;SDS011;38179;52.756;6.906;2022-10-16T02:16:40;15.88;;;14.48;;
52210;SDS011;38179;52.756;6.906;2022-10-16T02:19:09;15.13;;;13.82;;
52210;SDS011;38179;52.756;6.906;2022-10-16T02:21:56;14.93;;;13.73;;
52210;SDS011;38179;52.756;6.906;2022-10-16T02:27:33;15.55;;;14.15;;
52210;SDS011;38179;52.756;6.906;2022-10-16T02:33:12;14.70;;;13.40;;
52210;SDS011;38179;52.756;6.906;2022-10-16T02:35:40;15.75;;;14.55;;
52210;SDS011;38179;52.756;6.906;2022-10-16T02:38:08;14.98;;;13.82;;
52210;SDS011;38179;52.756;6.906;2022-10-16T02:40:36;15.23;;;13.88;;
52210;SDS011;38179;52.756;6.906;2022-10-16T02:43:03;14.73;;;13.52;;
52210;SDS011;38179;52.756;6.906;2022-10-16T02:45:30;15.60;;;14.00;;
52210;SDS011;38179;52.756;6.906;2022-10-16T02:47:56;14.77;;;13.30;;
52210;SDS011;38179;52.756;6.906;2022-10-16T02:50:22;15.05;;;13.50;;
52210;SDS011;38179;52.756;6.906;2022-10-16T02:52:50;15.10;;;13.80;;
52210;SDS011;38179;52.756;6.906;2022-10-16T02:55:16;15.32;;;13.93;;
52210;SDS011;38179;52.756;6.906;2022-10-16T02:57:43;14.80;;;13.38;;
52210;SDS011;38179;52.756;6.906;2022-10-16T03:00:10;15.90;;;14.50;;
52210;SDS011;38179;52.756;6.906;2022-10-16T03:02:38;15.73;;;14.20;;
52210;SDS011;38179;52.756;6.906;2022-10-16T03:05:05;15.15;;;13.80;;
52210;SDS011;38179;52.756;6.906;2022-10-16T03:07:32;15.27;;;13.98;;
52210;SDS011;38179;52.756;6.906;2022-10-16T03:09:58;14.98;;;13.73;;
52210;SDS011;38179;52.756;6.906;2022-10-16T03:12:27;15.20;;;13.77;;
52210;SDS011;38179;52.756;6.906;2022-10-16T03:14:54;15.68;;;14.38;;
52210;SDS011;38179;52.756;6.906;2022-10-16T03:17:21;15.52;;;14.02;;
52210;SDS011;38179;52.756;6.906;2022-10-16T03:19:48;14.80;;;13.70;;
52210;SDS011;38179;52.756;6.906;2022-10-16T03:22:14;15.35;;;14.15;;
52210;SDS011;38179;52.756;6.906;2022-10-16T03:24:40;14.73;;;13.45;;
52210;SDS011;38179;52.756;6.906;2022-10-16T03:27:06;15.75;;;14.38;;
52210;SDS011;38179;52.756;6.906;2022-10-16T03:29:33;15.75;;;14.52;;
52210;SDS011;38179;52.756;6.906;2022-10-16T03:31:59;15.55;;;14.18;;
52210;SDS011;38179;52.756;6.906;2022-10-16T03:34:26;15.57;;;14.10;;
52210;SDS011;38179;52.756;6.906;2022-10-16T03:36:53;15.43;;;14.13;;
52210;SDS011;38179;52.756;6.906;2022-10-16T03:39:19;15.93;;;14.57;;
52210;SDS011;38179;52.756;6.906;2022-10-16T03:41:45;15.57;;;14.27;;
52210;SDS011;38179;52.756;6.906;2022-10-16T03:44:12;15.63;;;14.32;;
52210;SDS011;38179;52.756;6.906;2022-10-16T03:46:38;15.80;;;14.50;;
52210;SDS011;38179;52.756;6.906;2022-10-16T03:49:05;15.90;;;14.48;;
52210;SDS011;38179;52.756;6.906;2022-10-16T03:51:31;15.60;;;14.27;;
52210;SDS011;38179;52.756;6.906;2022-10-16T03:53:57;15.88;;;14.38;;
52210;SDS011;38179;52.756;6.906;2022-10-16T03:56:23;15.60;;;14.30;;
52210;SDS011;38179;52.756;6.906;2022-10-16T03:58:49;15.48;;;14.00;;
52210;SDS011;38179;52.756;6.906;2022-10-16T04:01:16;16.92;;;15.18;;
52210;SDS011;38179;52.756;6.906;2022-10-16T04:03:42;16.30;;;14.77;;
52210;SDS011;38179;52.756;6.906;2022-10-16T04:06:08;16.05;;;14.65;;
52210;SDS011;38179;52.756;6.906;2022-10-16T04:08:35;15.88;;;14.57;;
52210;SDS011;38179;52.756;6.906;2022-10-16T04:11:02;16.63;;;15.10;;
52210;SDS011;38179;52.756;6.906;2022-10-16T04:13:28;15.77;;;14.13;;
52210;SDS011;38179;52.756;6.906;2022-10-16T04:15:55;15.70;;;14.40;;
52210;SDS011;38179;52.756;6.906;2022-10-16T04:18:21;16.05;;;14.75;;
52210;SDS011;38179;52.756;6.906;2022-10-16T04:20:47;15.95;;;14.70;;
52210;SDS011;38179;52.756;6.906;2022-10-16T04:23:13;16.40;;;14.90;;
52210;SDS011;38179;52.756;6.906;2022-10-16T04:25:39;16.35;;;14.95;;
52210;SDS011;38179;52.756;6.906;2022-10-16T04:28:06;16.20;;;14.80;;
52210;SDS011;38179;52.756;6.906;2022-10-16T04:30:32;16.88;;;15.38;;
52210;SDS011;38179;52.756;6.906;2022-10-16T04:32:59;16.73;;;15.32;;
52210;SDS011;38179;52.756;6.906;2022-10-16T04:35:25;15.90;;;14.70;;
52210;SDS011;38179;52.756;6.906;2022-10-16T04:37:51;16.55;;;14.98;;
52210;SDS011;38179;52.756;6.906;2022-10-16T04:40:17;16.20;;;14.90;;
52210;SDS011;38179;52.756;6.906;2022-10-16T04:42:44;16.17;;;14.77;;
52210;SDS011;38179;52.756;6.906;2022-10-16T04:45:10;16.08;;;14.77;;
52210;SDS011;38179;52.756;6.906;2022-10-16T04:47:36;16.65;;;15.35;;
52210;SDS011;38179;52.756;6.906;2022-10-16T04:50:03;16.80;;;15.40;;
52210;SDS011;38179;52.756;6.906;2022-10-16T04:52:29;16.98;;;15.38;;
52210;SDS011;38179;52.756;6.906;2022-10-16T04:54:56;19.75;;;16.52;;
52210;SDS011;38179;52.756;6.906;2022-10-16T04:57:26;16.73;;;15.40;;
52210;SDS011;38179;52.756;6.906;2022-10-16T04:59:52;16.13;;;14.73;;
52210;SDS011;38179;52.756;6.906;2022-10-16T05:02:18;16.67;;;15.27;;
52210;SDS011;38179;52.756;6.906;2022-10-16T05:04:44;16.77;;;15.32;;
52210;SDS011;38179;52.756;6.906;2022-10-16T05:07:11;16.13;;;14.70;;
52210;SDS011;38179;52.756;6.906;2022-10-16T05:09:36;16.25;;;14.90;;
52210;SDS011;38179;52.756;6.906;2022-10-16T05:12:03;16.52;;;14.98;;
52210;SDS011;38179;52.756;6.906;2022-10-16T05:14:30;16.30;;;14.88;;
52210;SDS011;38179;52.756;6.906;2022-10-16T05:16:56;16.33;;;14.98;;
52210;SDS011;38179;52.756;6.906;2022-10-16T05:19:22;16.33;;;15.02;;
52210;SDS011;38179;52.756;6.906;2022-10-16T05:21:49;16.55;;;14.98;;
52210;SDS011;38179;52.756;6.906;2022-10-16T05:24:15;16.67;;;15.18;;
52210;SDS011;38179;52.756;6.906;2022-10-16T05:26:41;16.52;;;15.02;;
52210;SDS011;38179;52.756;6.906;2022-10-16T05:29:08;16.65;;;15.15;;
52210;SDS011;38179;52.756;6.906;2022-10-16T05:31:34;16.33;;;14.63;;
52210;SDS011;38179;52.756;6.906;2022-10-16T05:34:01;16.08;;;14.68;;
52210;SDS011;38179;52.756;6.906;2022-10-16T05:36:27;15.98;;;14.48;;
52210;SDS011;38179;52.756;6.906;2022-10-16T05:38:53;16.58;;;15.00;;
52210;SDS011;38179;52.756;6.906;2022-10-16T05:41:19;19.45;;;15.18;;
52210;SDS011;38179;52.756;6.906;2022-10-16T05:43:47;16.20;;;14.90;;
52210;SDS011;38179;52.756;6.906;2022-10-16T05:46:14;16.55;;;15.15;;
52210;SDS011;38179;52.756;6.906;2022-10-16T05:48:41;15.50;;;14.23;;
52210;SDS011;38179;52.756;6.906;2022-10-16T05:51:08;16.13;;;14.82;;
52210;SDS011;38179;52.756;6.906;2022-10-16T05:53:36;15.80;;;14.40;;
52210;SDS011;38179;52.756;6.906;2022-10-16T05:56:04;15.50;;;14.25;;
52210;SDS011;38179;52.756;6.906;2022-10-16T05:58:33;15.93;;;14.43;;
52210;SDS011;38179;52.756;6.906;2022-10-16T06:03:30;15.68;;;14.38;;
52210;SDS011;38179;52.756;6.906;2022-10-16T06:05:56;15.52;;;14.23;;
52210;SDS011;38179;52.756;6.906;2022-10-16T06:08:22;16.05;;;14.75;;
52210;SDS011;38179;52.756;6.906;2022-10-16T06:10:49;15.52;;;14.10;;
52210;SDS011;38179;52.756;6.906;2022-10-16T06:15:56;15.10;;;13.80;;
52210;SDS011;38179;52.756;6.906;2022-10-16T06:18:23;14.82;;;13.52;;
52210;SDS011;38179;52.756;6.906;2022-10-16T06:20:49;15.85;;;14.45;;
52210;SDS011;38179;52.756;6.906;2022-10-16T06:23:15;16.50;;;14.63;;
52210;SDS011;38179;52.756;6.906;2022-10-16T06:25:41;15.70;;;14.45;;
52210;SDS011;38179;52.756;6.906;2022-10-16T06:28:07;15.85;;;14.30;;
52210;SDS011;38179;52.756;6.906;2022-10-16T06:30:33;14.55;;;13.15;;
52210;SDS011;38179;52.756;6.906;2022-10-16T06:32:59;14.88;;;13.68;;
52210;SDS011;38179;52.756;6.906;2022-10-16T06:35:26;15.18;;;13.88;;
52210;SDS011;38179;52.756;6.906;2022-10-16T06:37:52;16.52;;;15.05;;
52210;SDS011;38179;52.756;6.906;2022-10-16T06:40:18;15.45;;;14.05;;
52210;SDS011;38179;52.756;6.906;2022-10-16T06:42:44;15.45;;;14.05;;
52210;SDS011;38179;52.756;6.906;2022-10-16T06:45:12;15.27;;;13.98;;
52210;SDS011;38179;52.756;6.906;2022-10-16T06:47:38;15.68;;;14.40;;
52210;SDS011;38179;52.756;6.906;2022-10-16T06:50:04;14.65;;;13.25;;
52210;SDS011;38179;52.756;6.906;2022-10-16T06:52:32;15.32;;;13.82;;
52210;SDS011;38179;52.756;6.906;2022-10-16T06:54:58;15.68;;;14.38;;
52210;SDS011;38179;52.756;6.906;2022-10-16T06:57:25;15.43;;;14.13;;
52210;SDS011;38179;52.756;6.906;2022-10-16T06:59:51;15.63;;;14.35;;
52210;SDS011;38179;52.756;6.906;2022-10-16T07:02:17;15.93;;;14.70;;
52210;SDS011;38179;52.756;6.906;2022-10-16T07:04:43;15.27;;;14.02;;
52210;SDS011;38179;52.756;6.906;2022-10-16T07:07:09;15.38;;;14.00;;
52210;SDS011;38179;52.756;6.906;2022-10-16T07:09:35;15.40;;;14.10;;
52210;SDS011;38179;52.756;6.906;2022-10-16T07:12:02;15.07;;;13.77;;
52210;SDS011;38179;52.756;6.906;2022-10-16T07:14:38;14.75;;;13.45;;
52210;SDS011;38179;52.756;6.906;2022-10-16T07:17:05;14.98;;;13.70;;
52210;SDS011;38179;52.756;6.906;2022-10-16T07:19:31;15.65;;;14.43;;
52210;SDS011;38179;52.756;6.906;2022-10-16T07:21:58;15.77;;;14.32;;
52210;SDS011;38179;52.756;6.906;2022-10-16T07:24:27;15.07;;;13.77;;
52210;SDS011;38179;52.756;6.906;2022-10-16T07:26:55;15.85;;;14.35;;
52210;SDS011;38179;52.756;6.906;2022-10-16T07:29:21;15.80;;;14.52;;
52210;SDS011;38179;52.756;6.906;2022-10-16T07:31:48;15.90;;;14.43;;
52210;SDS011;38179;52.756;6.906;2022-10-16T07:34:15;15.57;;;14.27;;
52210;SDS011;38179;52.756;6.906;2022-10-16T07:36:43;16.40;;;14.77;;
52210;SDS011;38179;52.756;6.906;2022-10-16T07:39:09;15.60;;;14.30;;
52210;SDS011;38179;52.756;6.906;2022-10-16T07:41:35;15.15;;;13.63;;
52210;SDS011;38179;52.756;6.906;2022-10-16T07:44:02;15.43;;;14.23;;
52210;SDS011;38179;52.756;6.906;2022-10-16T07:46:29;15.93;;;14.52;;
52210;SDS011;38179;52.756;6.906;2022-10-16T07:48:56;17.27;;;13.82;;
52210;SDS011;38179;52.756;6.906;2022-10-16T07:51:24;15.88;;;14.38;;
52210;SDS011;38179;52.756;6.906;2022-10-16T07:53:51;16.67;;;14.30;;
52210;SDS011;38179;52.756;6.906;2022-10-16T07:56:18;17.10;;;15.38;;
52210;SDS011;38179;52.756;6.906;2022-10-16T07:58:45;14.85;;;13.57;;
52210;SDS011;38179;52.756;6.906;2022-10-16T08:01:12;14.95;;;13.75;;
52210;SDS011;38179;52.756;6.906;2022-10-16T08:03:41;15.52;;;13.98;;
52210;SDS011;38179;52.756;6.906;2022-10-16T08:06:08;15.38;;;14.07;;
52210;SDS011;38179;52.756;6.906;2022-10-16T08:08:34;15.18;;;13.98;;
52210;SDS011;38179;52.756;6.906;2022-10-16T08:11:00;14.93;;;13.63;;
52210;SDS011;38179;52.756;6.906;2022-10-16T08:13:31;19.00;;;14.75;;
52210;SDS011;38179;52.756;6.906;2022-10-16T08:15:58;14.77;;;13.38;;
52210;SDS011;38179;52.756;6.906;2022-10-16T08:18:24;15.27;;;13.93;;
52210;SDS011;38179;52.756;6.906;2022-10-16T08:20:57;14.88;;;13.57;;
52210;SDS011;38179;52.756;6.906;2022-10-16T08:23:25;14.85;;;13.57;;
52210;SDS011;38179;52.756;6.906;2022-10-16T08:25:52;15.63;;;14.32;;
52210;SDS011;38179;52.756;6.906;2022-10-16T08:28:22;16.10;;;14.50;;
52210;SDS011;38179;52.756;6.906;2022-10-16T08:30:49;15.40;;;14.02;;
52210;SDS011;38179;52.756;6.906;2022-10-16T08:33:15;15.02;;;13.63;;
52210;SDS011;38179;52.756;6.906;2022-10-16T08:35:42;15.55;;;14.20;;
52210;SDS011;38179;52.756;6.906;2022-10-16T08:38:08;15.52;;;14.10;;
52210;SDS011;38179;52.756;6.906;2022-10-16T08:40:36;14.77;;;13.45;;
52210;SDS011;38179;52.756;6.906;2022-10-16T08:48:51;15.27;;;14.07;;
52210;SDS011;38179;52.756;6.906;2022-10-16T08:53:52;15.52;;;14.05;;
52210;SDS011;38179;52.756;6.906;2022-10-16T08:56:20;15.32;;;13.93;;
52210;SDS011;38179;52.756;6.906;2022-10-16T08:58:47;16.30;;;14.77;;
52210;SDS011;38179;52.756;6.906;2022-10-16T09:06:57;15.70;;;14.05;;
52210;SDS011;38179;52.756;6.906;2022-10-16T09:09:43;15.15;;;13.85;;
52210;SDS011;38179;52.756;6.906;2022-10-16T09:23:21;15.70;;;14.18;;
52210;SDS011;38179;52.756;6.906;2022-10-16T09:25:51;15.82;;;14.18;;
52210;SDS011;38179;52.756;6.906;2022-10-16T09:28:18;15.77;;;14.40;;
52210;SDS011;38179;52.756;6.906;2022-10-16T09:30:44;15.60;;;14.30;;
52210;SDS011;38179;52.756;6.906;2022-10-16T09:33:12;15.38;;;14.00;;
52210;SDS011;38179;52.756;6.906;2022-10-16T09:38:09;15.57;;;14.18;;
52210;SDS011;38179;52.756;6.906;2022-10-16T09:40:46;15.75;;;14.45;;
52210;SDS011;38179;52.756;6.906;2022-10-16T09:43:20;15.90;;;14.43;;
52210;SDS011;38179;52.756;6.906;2022-10-16T09:45:53;15.73;;;14.43;;
52210;SDS011;38179;52.756;6.906;2022-10-16T09:48:25;16.40;;;14.20;;
52210;SDS011;38179;52.756;6.906;2022-10-16T09:50:56;15.77;;;14.25;;
52210;SDS011;38179;52.756;6.906;2022-10-16T09:53:45;16.13;;;14.50;;
52210;SDS011;38179;52.756;6.906;2022-10-16T09:56:20;15.68;;;14.38;;
52210;SDS011;38179;52.756;6.906;2022-10-16T09:58:54;16.35;;;14.68;;
52210;SDS011;38179;52.756;6.906;2022-10-16T10:01:35;16.02;;;14.32;;
52210;SDS011;38179;52.756;6.906;2022-10-16T10:04:04;16.15;;;14.63;;
52210;SDS011;38179;52.756;6.906;2022-10-16T10:06:32;16.13;;;14.55;;
52210;SDS011;38179;52.756;6.906;2022-10-16T10:11:48;15.30;;;13.93;;
52210;SDS011;38179;52.756;6.906;2022-10-16T10:14:17;16.98;;;15.15;;
52210;SDS011;38179;52.756;6.906;2022-10-16T10:16:52;18.20;;;15.02;;
52210;SDS011;38179;52.756;6.906;2022-10-16T10:19:27;15.82;;;14.27;;
52210;SDS011;38179;52.756;6.906;2022-10-16T10:21:53;15.93;;;14.48;;
52210;SDS011;38179;52.756;6.906;2022-10-16T10:24:19;16.65;;;15.13;;
52210;SDS011;38179;52.756;6.906;2022-10-16T10:26:57;17.48;;;14.73;;
52210;SDS011;38179;52.756;6.906;2022-10-16T10:29:46;16.33;;;14.68;;
52210;SDS011;38179;52.756;6.906;2022-10-16T10:38:13;16.95;;;14.55;;
52210;SDS011;38179;52.756;6.906;2022-10-16T10:49:07;16.05;;;14.45;;
52210;SDS011;38179;52.756;6.906;2022-10-16T10:57:45;16.63;;;14.75;;
52210;SDS011;38179;52.756;6.906;2022-10-16T11:08:22;16.75;;;15.10;;
52210;SDS011;38179;52.756;6.906;2022-10-16T11:11:08;18.23;;;14.82;;
52210;SDS011;38179;52.756;6.906;2022-10-16T11:16:33;16.75;;;14.75;;
52210;SDS011;38179;52.756;6.906;2022-10-16T11:19:14;22.88;;;16.30;;
52210;SDS011;38179;52.756;6.906;2022-10-16T11:25:04;17.35;;;15.68;;
52210;SDS011;38179;52.756;6.906;2022-10-16T11:30:26;18.58;;;15.23;;
52210;SDS011;38179;52.756;6.906;2022-10-16T11:38:37;21.50;;;15.57;;
52210;SDS011;38179;52.756;6.906;2022-10-16T11:44:14;16.83;;;15.23;;
52210;SDS011;38179;52.756;6.906;2022-10-16T11:49:38;16.70;;;15.10;;
52210;SDS011;38179;52.756;6.906;2022-10-16T11:54:59;18.60;;;15.70;;
52210;SDS011;38179;52.756;6.906;2022-10-16T11:57:41;17.55;;;14.63;;
52210;SDS011;38179;52.756;6.906;2022-10-16T12:03:17;16.90;;;15.15;;
52210;SDS011;38179;52.756;6.906;2022-10-16T12:06:06;17.08;;;15.27;;
52210;SDS011;38179;52.756;6.906;2022-10-16T12:08:48;17.52;;;15.80;;
52210;SDS011;38179;52.756;6.906;2022-10-16T12:11:35;17.52;;;15.32;;
52210;SDS011;38179;52.756;6.906;2022-10-16T12:16:56;16.35;;;14.75;;
52210;SDS011;38179;52.756;6.906;2022-10-16T12:19:56;17.45;;;15.82;;
52210;SDS011;38179;52.756;6.906;2022-10-16T12:22:28;17.92;;;15.23;;
52210;SDS011;38179;52.756;6.906;2022-10-16T12:24:55;20.13;;;15.45;;
52210;SDS011;38179;52.756;6.906;2022-10-16T12:27:29;18.42;;;16.40;;
52210;SDS011;38179;52.756;6.906;2022-10-16T12:30:00;17.17;;;15.45;;
52210;SDS011;38179;52.756;6.906;2022-10-16T12:32:34;18.88;;;15.13;;
52210;SDS011;38179;52.756;6.906;2022-10-16T12:35:02;17.27;;;15.63;;
52210;SDS011;38179;52.756;6.906;2022-10-16T12:40:04;23.55;;;16.50;;
52210;SDS011;38179;52.756;6.906;2022-10-16T12:42:57;17.45;;;15.68;;
52210;SDS011;38179;52.756;6.906;2022-10-16T12:45:30;16.65;;;14.98;;
52210;SDS011;38179;52.756;6.906;2022-10-16T12:47:58;16.83;;;14.63;;
52210;SDS011;38179;52.756;6.906;2022-10-16T12:50:27;19.45;;;15.45;;
52210;SDS011;38179;52.756;6.906;2022-10-16T12:52:56;16.75;;;15.07;;
52210;SDS011;38179;52.756;6.906;2022-10-16T12:55:23;16.85;;;15.27;;
52210;SDS011;38179;52.756;6.906;2022-10-16T13:00:37;17.23;;;15.40;;
52210;SDS011;38179;52.756;6.906;2022-10-16T13:08:38;16.80;;;15.15;;
52210;SDS011;38179;52.756;6.906;2022-10-16T13:11:17;18.42;;;15.45;;
52210;SDS011;38179;52.756;6.906;2022-10-16T13:16:37;17.40;;;15.23;;
52210;SDS011;38179;52.756;6.906;2022-10-16T13:19:34;17.60;;;15.80;;
52210;SDS011;38179;52.756;6.906;2022-10-16T13:22:24;17.40;;;15.70;;
52210;SDS011;38179;52.756;6.906;2022-10-16T13:30:21;17.58;;;15.65;;
52210;SDS011;38179;52.756;6.906;2022-10-16T13:32:50;17.15;;;15.55;;
52210;SDS011;38179;52.756;6.906;2022-10-16T13:35:22;16.73;;;15.13;;
52210;SDS011;38179;52.756;6.906;2022-10-16T13:37:50;16.73;;;14.95;;
52210;SDS011;38179;52.756;6.906;2022-10-16T13:40:21;16.90;;;15.23;;
52210;SDS011;38179;52.756;6.906;2022-10-16T13:42:48;17.08;;;15.25;;
52210;SDS011;38179;52.756;6.906;2022-10-16T13:45:20;18.67;;;15.50;;
52210;SDS011;38179;52.756;6.906;2022-10-16T13:47:47;16.67;;;14.98;;
52210;SDS011;38179;52.756;6.906;2022-10-16T13:50:14;17.75;;;16.10;;
52210;SDS011;38179;52.756;6.906;2022-10-16T13:52:42;16.95;;;15.02;;
52210;SDS011;38179;52.756;6.906;2022-10-16T13:55:12;18.02;;;16.17;;
52210;SDS011;38179;52.756;6.906;2022-10-16T13:57:39;17.58;;;15.07;;
52210;SDS011;38179;52.756;6.906;2022-10-16T14:00:27;17.25;;;15.40;;
52210;SDS011;38179;52.756;6.906;2022-10-16T14:02:58;17.58;;;15.68;;
52210;SDS011;38179;52.756;6.906;2022-10-16T14:05:32;16.92;;;15.25;;
52210;SDS011;38179;52.756;6.906;2022-10-16T14:07:58;17.80;;;16.15;;
52210;SDS011;38179;52.756;6.906;2022-10-16T14:10:29;16.90;;;15.32;;
52210;SDS011;38179;52.756;6.906;2022-10-16T14:15:30;17.20;;;15.60;;
52210;SDS011;38179;52.756;6.906;2022-10-16T14:17:58;17.00;;;15.43;;
52210;SDS011;38179;52.756;6.906;2022-10-16T14:20:25;16.98;;;15.45;;
52210;SDS011;38179;52.756;6.906;2022-10-16T14:23:01;18.00;;;16.15;;
52210;SDS011;38179;52.756;6.906;2022-10-16T14:25:44;16.92;;;15.15;;
52210;SDS011;38179;52.756;6.906;2022-10-16T14:28:21;17.33;;;15.57;;
52210;SDS011;38179;52.756;6.906;2022-10-16T14:30:52;16.08;;;14.68;;
52210;SDS011;38179;52.756;6.906;2022-10-16T14:33:24;16.80;;;15.27;;
52210;SDS011;38179;52.756;6.906;2022-10-16T14:39:06;18.20;;;15.98;;
52210;SDS011;38179;52.756;6.906;2022-10-16T14:41:45;16.92;;;15.25;;
52210;SDS011;38179;52.756;6.906;2022-10-16T14:44:13;16.73;;;15.15;;
52210;SDS011;38179;52.756;6.906;2022-10-16T14:46:40;17.67;;;15.60;;
52210;SDS011;38179;52.756;6.906;2022-10-16T14:51:37;16.95;;;15.32;;
52210;SDS011;38179;52.756;6.906;2022-10-16T14:54:07;16.13;;;14.57;;
52210;SDS011;38179;52.756;6.906;2022-10-16T14:56:40;17.65;;;15.75;;
52210;SDS011;38179;52.756;6.906;2022-10-16T15:00:00;17.58;;;15.77;;
52210;SDS011;38179;52.756;6.906;2022-10-16T15:02:14;16.13;;;14.63;;
52210;SDS011;38179;52.756;6.906;2022-10-16T15:04:56;21.27;;;15.52;;
52210;SDS011;38179;52.756;6.906;2022-10-16T15:07:22;17.30;;;15.60;;
52210;SDS011;38179;52.756;6.906;2022-10-16T15:09:48;17.30;;;15.68;;
52210;SDS011;38179;52.756;6.906;2022-10-16T15:12:16;17.05;;;15.60;;
52210;SDS011;38179;52.756;6.906;2022-10-16T15:14:42;16.83;;;15.07;;
52210;SDS011;38179;52.756;6.906;2022-10-16T15:17:09;16.80;;;15.40;;
52210;SDS011;38179;52.756;6.906;2022-10-16T15:19:36;16.60;;;15.20;;
52210;SDS011;38179;52.756;6.906;2022-10-16T15:22:02;16.58;;;14.98;;
52210;SDS011;38179;52.756;6.906;2022-10-16T15:24:27;17.40;;;15.80;;
52210;SDS011;38179;52.756;6.906;2022-10-16T15:26:53;16.65;;;15.05;;
52210;SDS011;38179;52.756;6.906;2022-10-16T15:29:19;17.13;;;15.52;;
52210;SDS011;38179;52.756;6.906;2022-10-16T15:31:45;16.13;;;14.80;;
52210;SDS011;38179;52.756;6.906;2022-10-16T15:34:12;17.65;;;15.80;;
52210;SDS011;38179;52.756;6.906;2022-10-16T15:36:39;17.45;;;15.80;;
52210;SDS011;38179;52.756;6.906;2022-10-16T15:39:12;16.30;;;14.80;;
52210;SDS011;38179;52.756;6.906;2022-10-16T15:41:42;17.75;;;16.10;;
52210;SDS011;38179;52.756;6.906;2022-10-16T15:44:08;17.60;;;15.85;;
52210;SDS011;38179;52.756;6.906;2022-10-16T15:46:34;17.55;;;15.82;;
52210;SDS011;38179;52.756;6.906;2022-10-16T15:49:02;21.45;;;15.90;;
52210;SDS011;38179;52.756;6.906;2022-10-16T15:51:28;16.67;;;15.15;;
52210;SDS011;38179;52.756;6.906;2022-10-16T15:53:57;17.95;;;16.10;;
52210;SDS011;38179;52.756;6.906;2022-10-16T15:56:24;17.52;;;15.82;;
52210;SDS011;38179;52.756;6.906;2022-10-16T15:58:54;16.98;;;15.40;;
52210;SDS011;38179;52.756;6.906;2022-10-16T16:01:20;18.27;;;16.02;;
52210;SDS011;38179;52.756;6.906;2022-10-16T16:03:46;17.15;;;15.68;;
52210;SDS011;38179;52.756;6.906;2022-10-16T16:06:13;18.30;;;15.35;;
52210;SDS011;38179;52.756;6.906;2022-10-16T16:08:39;17.00;;;15.38;;
52210;SDS011;38179;52.756;6.906;2022-10-16T16:11:07;17.17;;;15.50;;
52210;SDS011;38179;52.756;6.906;2022-10-16T16:13:34;18.92;;;15.45;;
52210;SDS011;38179;52.756;6.906;2022-10-16T16:16:13;17.80;;;15.80;;
52210;SDS011;38179;52.756;6.906;2022-10-16T16:18:40;17.65;;;15.85;;
52210;SDS011;38179;52.756;6.906;2022-10-16T16:21:07;17.42;;;15.70;;
52210;SDS011;38179;52.756;6.906;2022-10-16T16:23:34;17.65;;;15.75;;
52210;SDS011;38179;52.756;6.906;2022-10-16T16:26:04;16.70;;;15.20;;
52210;SDS011;38179;52.756;6.906;2022-10-16T16:28:31;17.15;;;15.65;;
52210;SDS011;38179;52.756;6.906;2022-10-16T16:30:57;17.15;;;15.57;;
52210;SDS011;38179;52.756;6.906;2022-10-16T16:33:23;17.08;;;15.38;;
52210;SDS011;38179;52.756;6.906;2022-10-16T16:35:49;17.08;;;15.50;;
52210;SDS011;38179;52.756;6.906;2022-10-16T16:38:15;16.95;;;15.45;;
52210;SDS011;38179;52.756;6.906;2022-10-16T16:40:41;16.63;;;15.05;;
52210;SDS011;38179;52.756;6.906;2022-10-16T16:43:07;16.40;;;14.75;;
52210;SDS011;38179;52.756;6.906;2022-10-16T16:45:36;17.17;;;15.38;;